sensor_id;sensor_type;location;lat;lon;timestamp;pressure;altitude;pressure_sealevel;temperature;humidity
62703;BME280;66022;50.448;18.122;2023-03-13T00:03:49;98682.20;;;6.26;61.44
62703;BME280;66022;50.448;18.122;2023-03-13T00:08:03;98679.22;;;6.28;62.00
62703;BME280;66022;50.448;18.122;2023-03-13T00:12:16;98675.36;;;6.30;62.72
62703;BME280;66022;50.448;18.122;2023-03-13T00:16:30;98671.92;;;6.33;63.08
62703;BME280;66022;50.448;18.122;2023-03-13T00:20:45;98666.47;;;6.33;64.44
62703;BME280;66022;50.448;18.122;2023-03-13T00:24:58;98660.86;;;6.35;64.97
62703;BME280;66022;50.448;18.122;2023-03-13T00:29:13;98654.33;;;6.31;67.47
62703;BME280;66022;50.448;18.122;2023-03-13T00:33:26;98651.75;;;6.31;65.84
62703;BME280;66022;50.448;18.122;2023-03-13T00:37:41;98653.59;;;6.31;65.83
62703;BME280;66022;50.448;18.122;2023-03-13T00:41:55;98654.28;;;6.28;66.71
62703;BME280;66022;50.448;18.122;2023-03-13T00:46:09;98654.36;;;6.29;66.35
62703;BME280;66022;50.448;18.122;2023-03-13T00:50:22;98653.52;;;6.29;67.97
62703;BME280;66022;50.448;18.122;2023-03-13T00:54:37;98654.44;;;6.31;67.37
62703;BME280;66022;50.448;18.122;2023-03-13T00:58:51;98654.58;;;6.30;67.63
62703;BME280;66022;50.448;18.122;2023-03-13T01:03:05;98657.00;;;6.30;67.57
62703;BME280;66022;50.448;18.122;2023-03-13T01:07:19;98659.33;;;6.31;67.64
62703;BME280;66022;50.448;18.122;2023-03-13T01:11:34;98660.53;;;6.29;68.03
62703;BME280;66022;50.448;18.122;2023-03-13T01:15:47;98662.82;;;6.32;68.00
62703;BME280;66022;50.448;18.122;2023-03-13T01:20:08;98663.32;;;6.32;69.38
62703;BME280;66022;50.448;18.122;2023-03-13T01:24:21;98663.20;;;6.34;68.25
62703;BME280;66022;50.448;18.122;2023-03-13T01:28:34;98664.51;;;6.36;68.34
62703;BME280;66022;50.448;18.122;2023-03-13T01:32:43;98664.75;;;6.37;68.73
62703;BME280;66022;50.448;18.122;2023-03-13T01:36:57;98664.04;;;6.39;68.69
62703;BME280;66022;50.448;18.122;2023-03-13T01:41:11;98663.31;;;6.38;69.36
62703;BME280;66022;50.448;18.122;2023-03-13T01:49:39;98660.82;;;6.39;71.46
62703;BME280;66022;50.448;18.122;2023-03-13T01:53:55;98660.33;;;6.42;69.37
62703;BME280;66022;50.448;18.122;2023-03-13T01:58:07;98660.57;;;6.44;69.53
62703;BME280;66022;50.448;18.122;2023-03-13T02:02:21;98661.28;;;6.45;69.87
62703;BME280;66022;50.448;18.122;2023-03-13T02:06:35;98663.56;;;6.49;69.48
62703;BME280;66022;50.448;18.122;2023-03-13T02:10:50;98664.37;;;6.51;70.42
62703;BME280;66022;50.448;18.122;2023-03-13T02:15:04;98665.47;;;6.56;69.80
62703;BME280;66022;50.448;18.122;2023-03-13T02:19:18;98665.47;;;6.56;72.95
62703;BME280;66022;50.448;18.122;2023-03-13T02:23:32;98667.08;;;6.61;70.38
62703;BME280;66022;50.448;18.122;2023-03-13T02:27:45;98668.17;;;6.65;70.49
62703;BME280;66022;50.448;18.122;2023-03-13T02:31:59;98669.23;;;6.67;70.96
62703;BME280;66022;50.448;18.122;2023-03-13T02:36:13;98670.84;;;6.70;70.83
62703;BME280;66022;50.448;18.122;2023-03-13T02:40:27;98670.97;;;6.72;72.04
62703;BME280;66022;50.448;18.122;2023-03-13T02:44:41;98671.28;;;6.74;71.85
62703;BME280;66022;50.448;18.122;2023-03-13T02:48:55;98672.34;;;6.75;73.45
62703;BME280;66022;50.448;18.122;2023-03-13T02:53:09;98674.49;;;6.77;72.31
62703;BME280;66022;50.448;18.122;2023-03-13T02:57:23;98676.56;;;6.78;72.34
62703;BME280;66022;50.448;18.122;2023-03-13T03:01:37;98678.94;;;6.76;72.94
62703;BME280;66022;50.448;18.122;2023-03-13T03:05:51;98682.04;;;6.80;72.39
62703;BME280;66022;50.448;18.122;2023-03-13T03:10:05;98683.00;;;6.82;73.84
62703;BME280;66022;50.448;18.122;2023-03-13T03:14:19;98682.69;;;6.86;72.79
62703;BME280;66022;50.448;18.122;2023-03-13T03:18:33;98682.65;;;6.89;72.63
62703;BME280;66022;50.448;18.122;2023-03-13T03:22:47;98681.67;;;6.92;73.27
62703;BME280;66022;50.448;18.122;2023-03-13T03:27:01;98680.96;;;6.95;73.74
62703;BME280;66022;50.448;18.122;2023-03-13T03:31:15;98680.30;;;6.95;73.94
62703;BME280;66022;50.448;18.122;2023-03-13T03:35:29;98679.66;;;6.98;73.47
62703;BME280;66022;50.448;18.122;2023-03-13T03:39:43;98678.86;;;6.99;75.61
62703;BME280;66022;50.448;18.122;2023-03-13T03:43:57;98678.21;;;7.03;73.45
62703;BME280;66022;50.448;18.122;2023-03-13T03:48:11;98677.83;;;7.06;73.46
62703;BME280;66022;50.448;18.122;2023-03-13T03:52:25;98676.12;;;7.08;73.94
62703;BME280;66022;50.448;18.122;2023-03-13T03:56:39;98675.98;;;7.11;74.46
62703;BME280;66022;50.448;18.122;2023-03-13T04:00:54;98674.05;;;7.13;75.46
62703;BME280;66022;50.448;18.122;2023-03-13T04:05:07;98673.41;;;7.15;74.49
62703;BME280;66022;50.448;18.122;2023-03-13T04:09:21;98673.28;;;7.13;77.63
62703;BME280;66022;50.448;18.122;2023-03-13T04:13:35;98671.92;;;7.15;74.46
62703;BME280;66022;50.448;18.122;2023-03-13T04:17:49;98671.53;;;7.18;73.99
62703;BME280;66022;50.448;18.122;2023-03-13T04:22:03;98670.42;;;7.19;74.59
62703;BME280;66022;50.448;18.122;2023-03-13T04:26:17;98669.37;;;7.22;74.03
62703;BME280;66022;50.448;18.122;2023-03-13T04:30:31;98668.13;;;7.23;74.73
62703;BME280;66022;50.448;18.122;2023-03-13T04:34:45;98666.91;;;7.25;74.08
62703;BME280;66022;50.448;18.122;2023-03-13T04:38:59;98662.92;;;7.23;75.97
62703;BME280;66022;50.448;18.122;2023-03-13T04:43:13;98660.46;;;7.24;74.45
62703;BME280;66022;50.448;18.122;2023-03-13T04:47:27;98657.61;;;7.25;73.73
62703;BME280;66022;50.448;18.122;2023-03-13T04:51:41;98655.20;;;7.24;74.01
62703;BME280;66022;50.448;18.122;2023-03-13T04:55:55;98653.65;;;7.27;73.37
62703;BME280;66022;50.448;18.122;2023-03-13T05:00:09;98651.47;;;7.28;74.54
62703;BME280;66022;50.448;18.122;2023-03-13T05:04:23;98649.66;;;7.30;73.45
62703;BME280;66022;50.448;18.122;2023-03-13T05:08:37;98648.05;;;7.32;73.08
62703;BME280;66022;50.448;18.122;2023-03-13T05:12:51;98646.00;;;7.34;73.14
62703;BME280;66022;50.448;18.122;2023-03-13T05:17:05;98642.94;;;7.36;72.88
62703;BME280;66022;50.448;18.122;2023-03-13T05:21:19;98639.61;;;7.35;73.29
62703;BME280;66022;50.448;18.122;2023-03-13T05:25:33;98635.74;;;7.38;72.67
62703;BME280;66022;50.448;18.122;2023-03-13T05:29:47;98631.81;;;7.38;74.10
62703;BME280;66022;50.448;18.122;2023-03-13T05:34:01;98626.67;;;7.40;72.36
62703;BME280;66022;50.448;18.122;2023-03-13T05:38:16;98622.28;;;7.42;72.13
62703;BME280;66022;50.448;18.122;2023-03-13T05:42:29;98618.84;;;7.43;72.41
62703;BME280;66022;50.448;18.122;2023-03-13T05:46:43;98615.00;;;7.46;72.28
62703;BME280;66022;50.448;18.122;2023-03-13T05:51:00;98611.88;;;7.48;72.34
62703;BME280;66022;50.448;18.122;2023-03-13T05:55:11;98611.21;;;7.52;71.74
62703;BME280;66022;50.448;18.122;2023-03-13T05:59:32;98611.21;;;7.52;73.60
62703;BME280;66022;50.448;18.122;2023-03-13T06:03:42;98611.77;;;7.57;71.33
62703;BME280;66022;50.448;18.122;2023-03-13T06:07:53;98612.58;;;7.64;71.11
62703;BME280;66022;50.448;18.122;2023-03-13T06:12:07;98612.44;;;7.69;71.07
62703;BME280;66022;50.448;18.122;2023-03-13T06:16:21;98612.82;;;7.76;70.86
62703;BME280;66022;50.448;18.122;2023-03-13T06:20:35;98614.23;;;7.80;71.76
62703;BME280;66022;50.448;18.122;2023-03-13T06:24:49;98612.27;;;7.84;71.22
62703;BME280;66022;50.448;18.122;2023-03-13T06:29:03;98610.97;;;7.87;71.97
62703;BME280;66022;50.448;18.122;2023-03-13T06:33:17;98608.50;;;7.94;70.66
62703;BME280;66022;50.448;18.122;2023-03-13T06:37:31;98605.68;;;8.00;70.63
62703;BME280;66022;50.448;18.122;2023-03-13T06:41:45;98603.41;;;8.04;70.67
62703;BME280;66022;50.448;18.122;2023-03-13T06:46:02;98602.01;;;8.11;70.49
62703;BME280;66022;50.448;18.122;2023-03-13T06:50:13;98600.45;;;8.17;71.26
62703;BME280;66022;50.448;18.122;2023-03-13T06:54:27;98596.94;;;8.27;70.17
62703;BME280;66022;50.448;18.122;2023-03-13T06:58:41;98592.46;;;8.40;69.51
62703;BME280;66022;50.448;18.122;2023-03-13T07:02:55;98586.24;;;8.60;73.09
62703;BME280;66022;50.448;18.122;2023-03-13T07:07:09;98580.02;;;8.86;67.28
62703;BME280;66022;50.448;18.122;2023-03-13T07:11:23;98573.30;;;9.11;66.63
62703;BME280;66022;50.448;18.122;2023-03-13T07:15:37;98565.54;;;9.47;64.91
62703;BME280;66022;50.448;18.122;2023-03-13T07:19:51;98557.58;;;9.78;64.73
62703;BME280;66022;50.448;18.122;2023-03-13T07:24:05;98551.03;;;10.07;64.22
62703;BME280;66022;50.448;18.122;2023-03-13T07:28:19;98545.06;;;10.29;64.56
62703;BME280;66022;50.448;18.122;2023-03-13T07:32:33;98540.71;;;10.42;65.29
62703;BME280;66022;50.448;18.122;2023-03-13T07:36:47;98536.85;;;10.54;65.40
62703;BME280;66022;50.448;18.122;2023-03-13T07:41:01;98533.40;;;10.65;65.23
62703;BME280;66022;50.448;18.122;2023-03-13T07:45:15;98531.02;;;10.80;64.12
62703;BME280;66022;50.448;18.122;2023-03-13T07:49:29;98530.07;;;10.90;64.44
62703;BME280;66022;50.448;18.122;2023-03-13T07:53:43;98531.00;;;11.09;63.65
62703;BME280;66022;50.448;18.122;2023-03-13T07:57:57;98530.38;;;11.31;62.27
62703;BME280;66022;50.448;18.122;2023-03-13T08:02:11;98528.41;;;11.52;62.44
62703;BME280;66022;50.448;18.122;2023-03-13T08:06:25;98526.72;;;11.72;61.81
62703;BME280;66022;50.448;18.122;2023-03-13T08:10:39;98525.16;;;11.91;61.97
62703;BME280;66022;50.448;18.122;2023-03-13T08:14:53;98522.13;;;12.07;61.31
62703;BME280;66022;50.448;18.122;2023-03-13T08:19:07;98520.04;;;12.08;61.86
62703;BME280;66022;50.448;18.122;2023-03-13T08:23:23;98520.15;;;12.10;62.37
62703;BME280;66022;50.448;18.122;2023-03-13T08:27:35;98517.83;;;12.09;63.13
62703;BME280;66022;50.448;18.122;2023-03-13T08:31:49;98513.72;;;12.09;63.04
62703;BME280;66022;50.448;18.122;2023-03-13T08:40:17;98506.24;;;12.39;61.39
62703;BME280;66022;50.448;18.122;2023-03-13T08:44:31;98502.84;;;12.58;60.76
62703;BME280;66022;50.448;18.122;2023-03-13T08:52:59;98497.25;;;12.70;61.57
62703;BME280;66022;50.448;18.122;2023-03-13T08:57:13;98490.62;;;12.66;62.10
62703;BME280;66022;50.448;18.122;2023-03-13T09:01:31;98484.39;;;12.54;63.30
62703;BME280;66022;50.448;18.122;2023-03-13T09:05:41;98480.05;;;12.49;63.40
62703;BME280;66022;50.448;18.122;2023-03-13T09:09:55;98478.39;;;12.40;63.70
62703;BME280;66022;50.448;18.122;2023-03-13T09:14:09;98477.44;;;12.34;63.67
62703;BME280;66022;50.448;18.122;2023-03-13T09:18:23;98476.84;;;12.29;64.16
62703;BME280;66022;50.448;18.122;2023-03-13T09:22:37;98474.50;;;12.22;64.31
62703;BME280;66022;50.448;18.122;2023-03-13T09:26:51;98473.18;;;12.15;64.60
62703;BME280;66022;50.448;18.122;2023-03-13T09:31:12;98473.78;;;12.05;64.40
62703;BME280;66022;50.448;18.122;2023-03-13T09:35:19;98473.94;;;11.99;64.51
62703;BME280;66022;50.448;18.122;2023-03-13T09:39:33;98473.27;;;11.91;64.55
62703;BME280;66022;50.448;18.122;2023-03-13T09:43:49;98469.76;;;11.90;64.88
62703;BME280;66022;50.448;18.122;2023-03-13T09:48:03;98463.98;;;11.95;64.05
62703;BME280;66022;50.448;18.122;2023-03-13T09:52:21;98455.56;;;12.00;63.54
62703;BME280;66022;50.448;18.122;2023-03-13T09:56:30;98452.06;;;12.05;64.05
62703;BME280;66022;50.448;18.122;2023-03-13T10:00:45;98450.01;;;12.06;64.44
62703;BME280;66022;50.448;18.122;2023-03-13T10:09:53;98436.89;;;12.03;63.54
62703;BME280;66022;50.448;18.122;2023-03-13T10:13:27;98430.41;;;12.05;63.34
62703;BME280;66022;50.448;18.122;2023-03-13T10:17:39;98421.70;;;12.08;63.14
62703;BME280;66022;50.448;18.122;2023-03-13T10:21:53;98411.95;;;12.12;63.88
62703;BME280;66022;50.448;18.122;2023-03-13T10:30:23;98392.75;;;12.23;63.10
62703;BME280;66022;50.448;18.122;2023-03-13T10:38:50;98371.35;;;12.30;62.90
62703;BME280;66022;50.448;18.122;2023-03-13T10:43:04;98365.34;;;12.34;62.96
62703;BME280;66022;50.448;18.122;2023-03-13T10:47:17;98359.75;;;12.42;66.26
62703;BME280;66022;50.448;18.122;2023-03-13T10:51:36;98354.03;;;12.57;61.70
62703;BME280;66022;50.448;18.122;2023-03-13T10:55:45;98349.16;;;12.73;65.48
62703;BME280;66022;50.448;18.122;2023-03-13T10:59:59;98346.04;;;12.83;60.86
62703;BME280;66022;50.448;18.122;2023-03-13T11:08:28;98339.31;;;12.94;61.18
62703;BME280;66022;50.448;18.122;2023-03-13T11:12:45;98331.79;;;12.92;61.26
62703;BME280;66022;50.448;18.122;2023-03-13T11:21:10;98319.90;;;12.85;62.47
62703;BME280;66022;50.448;18.122;2023-03-13T11:50:51;98270.26;;;12.69;63.02
62703;BME280;66022;50.448;18.122;2023-03-13T11:55:05;98263.92;;;12.66;63.80
62703;BME280;66022;50.448;18.122;2023-03-13T12:03:33;98255.58;;;12.57;64.91
62703;BME280;66022;50.448;18.122;2023-03-13T12:11:59;98248.56;;;12.52;64.78
62703;BME280;66022;50.448;18.122;2023-03-13T12:16:13;98247.05;;;12.51;64.21
62703;BME280;66022;50.448;18.122;2023-03-13T12:25:02;98241.82;;;12.48;63.74
62703;BME280;66022;50.448;18.122;2023-03-13T12:28:59;98238.51;;;12.45;64.23
62703;BME280;66022;50.448;18.122;2023-03-13T13:02:45;98206.80;;;12.11;64.05
62703;BME280;66022;50.448;18.122;2023-03-13T13:07:13;98203.90;;;12.08;63.67
62703;BME280;66022;50.448;18.122;2023-03-13T13:15:27;98202.19;;;11.99;63.28
62703;BME280;66022;50.448;18.122;2023-03-13T13:19:45;98201.84;;;11.94;63.42
62703;BME280;66022;50.448;18.122;2023-03-13T13:23:55;98202.34;;;11.92;65.12
62703;BME280;66022;50.448;18.122;2023-03-13T13:28:11;98205.59;;;11.88;66.11
62703;BME280;66022;50.448;18.122;2023-03-13T13:36:41;98207.84;;;11.79;65.92
62703;BME280;66022;50.448;18.122;2023-03-13T13:49:20;98205.05;;;11.62;66.99
62703;BME280;66022;50.448;18.122;2023-03-13T13:53:55;98201.67;;;11.58;65.55
62703;BME280;66022;50.448;18.122;2023-03-13T13:57:47;98196.91;;;11.55;64.66
62703;BME280;66022;50.448;18.122;2023-03-13T14:10:31;98190.86;;;11.50;65.93
62703;BME280;66022;50.448;18.122;2023-03-13T14:14:43;98191.04;;;11.51;61.59
62703;BME280;66022;50.448;18.122;2023-03-13T14:18:57;98191.85;;;11.52;60.62
62703;BME280;66022;50.448;18.122;2023-03-13T14:23:11;98191.90;;;11.55;61.21
62703;BME280;66022;50.448;18.122;2023-03-13T14:27:25;98189.99;;;11.58;61.33
62703;BME280;66022;50.448;18.122;2023-03-13T14:31:39;98189.67;;;11.60;60.96
62703;BME280;66022;50.448;18.122;2023-03-13T14:35:54;98187.62;;;11.64;60.25
62703;BME280;66022;50.448;18.122;2023-03-13T14:40:08;98185.05;;;11.67;59.84
62703;BME280;66022;50.448;18.122;2023-03-13T14:44:24;98182.78;;;11.71;59.75
62703;BME280;66022;50.448;18.122;2023-03-13T14:48:36;98180.22;;;11.74;58.86
62703;BME280;66022;50.448;18.122;2023-03-13T14:52:51;98176.26;;;11.76;58.58
62703;BME280;66022;50.448;18.122;2023-03-13T14:57:05;98172.10;;;11.78;59.84
62703;BME280;66022;50.448;18.122;2023-03-13T20:46:00;97902.26;;;10.94;60.09
62703;BME280;66022;50.448;18.122;2023-03-13T20:50:14;97901.09;;;10.99;58.77
62703;BME280;66022;50.448;18.122;2023-03-13T20:54:28;97895.62;;;11.06;58.90
62703;BME280;66022;50.448;18.122;2023-03-13T20:58:42;97892.44;;;11.15;58.53
62703;BME280;66022;50.448;18.122;2023-03-13T21:02:56;97890.37;;;11.24;58.40
62703;BME280;66022;50.448;18.122;2023-03-13T21:07:13;97887.15;;;11.33;58.04
62703;BME280;66022;50.448;18.122;2023-03-13T21:11:24;97885.71;;;11.37;56.96
62703;BME280;66022;50.448;18.122;2023-03-13T21:15:38;97883.28;;;11.46;58.14
62703;BME280;66022;50.448;18.122;2023-03-13T21:19:52;97879.01;;;11.53;57.97
62703;BME280;66022;50.448;18.122;2023-03-13T21:24:06;97871.94;;;11.57;57.40
62703;BME280;66022;50.448;18.122;2023-03-13T21:28:20;97863.92;;;11.64;57.90
62703;BME280;66022;50.448;18.122;2023-03-13T21:32:37;97854.74;;;11.67;57.16
62703;BME280;66022;50.448;18.122;2023-03-13T21:36:48;97846.08;;;11.72;56.78
62703;BME280;66022;50.448;18.122;2023-03-13T21:45:16;97835.36;;;11.78;56.69
62703;BME280;66022;50.448;18.122;2023-03-13T21:49:30;97833.23;;;11.80;57.56
62703;BME280;66022;50.448;18.122;2023-03-13T21:53:44;97829.10;;;11.78;57.35
62703;BME280;66022;50.448;18.122;2023-03-13T21:57:58;97822.64;;;11.78;58.17
62703;BME280;66022;50.448;18.122;2023-03-13T22:02:12;97814.26;;;11.74;57.18
62703;BME280;66022;50.448;18.122;2023-03-13T22:06:26;97806.50;;;11.70;56.86
62703;BME280;66022;50.448;18.122;2023-03-13T22:10:45;97801.57;;;11.64;58.96
62703;BME280;66022;50.448;18.122;2023-03-13T22:14:54;97798.15;;;11.58;58.75
62703;BME280;66022;50.448;18.122;2023-03-13T22:19:08;97796.27;;;11.55;59.04
62703;BME280;66022;50.448;18.122;2023-03-13T22:23:22;97795.64;;;11.49;58.88
62703;BME280;66022;50.448;18.122;2023-03-13T22:27:36;97794.17;;;11.47;59.23
62703;BME280;66022;50.448;18.122;2023-03-13T22:31:50;97791.75;;;11.41;58.62
62703;BME280;66022;50.448;18.122;2023-03-13T22:36:04;97787.72;;;11.36;59.49
62703;BME280;66022;50.448;18.122;2023-03-13T22:40:18;97783.49;;;11.29;60.21
62703;BME280;66022;50.448;18.122;2023-03-13T22:44:32;97778.35;;;11.23;59.98
62703;BME280;66022;50.448;18.122;2023-03-13T22:48:46;97772.71;;;11.18;60.10
62703;BME280;66022;50.448;18.122;2023-03-13T22:53:00;97766.16;;;11.11;59.98
62703;BME280;66022;50.448;18.122;2023-03-13T22:57:14;97760.27;;;11.07;60.17
62703;BME280;66022;50.448;18.122;2023-03-13T23:01:28;97751.54;;;11.00;59.83
62703;BME280;66022;50.448;18.122;2023-03-13T23:05:42;97738.36;;;10.98;59.45
62703;BME280;66022;50.448;18.122;2023-03-13T23:09:56;97727.26;;;10.98;59.67
62703;BME280;66022;50.448;18.122;2023-03-13T23:14:10;97717.89;;;10.97;59.42
62703;BME280;66022;50.448;18.122;2023-03-13T23:18:24;97709.79;;;10.99;58.99
62703;BME280;66022;50.448;18.122;2023-03-13T23:22:41;97704.32;;;11.02;59.03
62703;BME280;66022;50.448;18.122;2023-03-13T23:26:52;97696.73;;;11.06;58.78
62703;BME280;66022;50.448;18.122;2023-03-13T23:31:10;97687.55;;;11.07;57.74
62703;BME280;66022;50.448;18.122;2023-03-13T23:35:22;97675.48;;;11.12;58.50
62703;BME280;66022;50.448;18.122;2023-03-13T23:39:34;97662.39;;;11.16;58.73
62703;BME280;66022;50.448;18.122;2023-03-13T23:43:48;97650.34;;;11.19;58.95
62703;BME280;66022;50.448;18.122;2023-03-13T23:48:02;97639.47;;;11.23;58.63
62703;BME280;66022;50.448;18.122;2023-03-13T23:52:16;97625.07;;;11.25;58.54
62703;BME280;66022;50.448;18.122;2023-03-13T23:56:30;97611.27;;;11.28;58.83
